sensor_id;sensor_type;location;lat;lon;timestamp;P1;durP1;ratioP1;P2;durP2;ratioP2
28760;SDS011;15917;50.014;8.352;2023-06-26T00:02:12;11.85;;;5.90;;
28760;SDS011;15917;50.014;8.352;2023-06-26T00:04:38;9.52;;;5.90;;
28760;SDS011;15917;50.014;8.352;2023-06-26T00:07:04;8.23;;;5.28;;
28760;SDS011;15917;50.014;8.352;2023-06-26T00:09:30;11.43;;;6.03;;
28760;SDS011;15917;50.014;8.352;2023-06-26T00:11:56;14.02;;;5.38;;
28760;SDS011;15917;50.014;8.352;2023-06-26T00:14:21;10.65;;;5.88;;
28760;SDS011;15917;50.014;8.352;2023-06-26T00:16:47;8.95;;;5.70;;
28760;SDS011;15917;50.014;8.352;2023-06-26T00:19:14;8.55;;;5.47;;
28760;SDS011;15917;50.014;8.352;2023-06-26T00:21:40;9.68;;;5.30;;
28760;SDS011;15917;50.014;8.352;2023-06-26T00:24:11;10.38;;;5.35;;
28760;SDS011;15917;50.014;8.352;2023-06-26T00:26:37;9.30;;;5.47;;
28760;SDS011;15917;50.014;8.352;2023-06-26T00:29:03;11.32;;;5.68;;
28760;SDS011;15917;50.014;8.352;2023-06-26T00:31:28;8.05;;;5.20;;
28760;SDS011;15917;50.014;8.352;2023-06-26T00:33:54;10.88;;;5.63;;
28760;SDS011;15917;50.014;8.352;2023-06-26T00:36:22;8.45;;;5.82;;
28760;SDS011;15917;50.014;8.352;2023-06-26T00:38:51;10.25;;;5.55;;
28760;SDS011;15917;50.014;8.352;2023-06-26T00:41:17;7.93;;;5.00;;
28760;SDS011;15917;50.014;8.352;2023-06-26T00:43:43;7.90;;;5.53;;
28760;SDS011;15917;50.014;8.352;2023-06-26T00:46:10;10.25;;;6.05;;
28760;SDS011;15917;50.014;8.352;2023-06-26T00:48:38;9.18;;;5.57;;
28760;SDS011;15917;50.014;8.352;2023-06-26T00:51:06;8.85;;;5.72;;
28760;SDS011;15917;50.014;8.352;2023-06-26T00:53:32;14.00;;;5.45;;
28760;SDS011;15917;50.014;8.352;2023-06-26T00:55:58;9.50;;;5.88;;
28760;SDS011;15917;50.014;8.352;2023-06-26T00:58:24;8.63;;;5.32;;
28760;SDS011;15917;50.014;8.352;2023-06-26T01:00:51;7.30;;;4.82;;
28760;SDS011;15917;50.014;8.352;2023-06-26T01:03:18;8.88;;;5.35;;
28760;SDS011;15917;50.014;8.352;2023-06-26T01:05:45;10.07;;;5.90;;
28760;SDS011;15917;50.014;8.352;2023-06-26T01:08:16;8.65;;;5.50;;
28760;SDS011;15917;50.014;8.352;2023-06-26T01:10:43;10.10;;;5.38;;
28760;SDS011;15917;50.014;8.352;2023-06-26T01:13:11;11.03;;;5.67;;
28760;SDS011;15917;50.014;8.352;2023-06-26T01:15:38;9.27;;;6.15;;
28760;SDS011;15917;50.014;8.352;2023-06-26T01:18:04;7.43;;;5.05;;
28760;SDS011;15917;50.014;8.352;2023-06-26T01:20:32;9.88;;;5.13;;
28760;SDS011;15917;50.014;8.352;2023-06-26T01:25:52;11.00;;;5.85;;
28760;SDS011;15917;50.014;8.352;2023-06-26T01:28:33;8.25;;;5.50;;
28760;SDS011;15917;50.014;8.352;2023-06-26T01:31:02;8.13;;;5.00;;
28760;SDS011;15917;50.014;8.352;2023-06-26T01:33:29;8.57;;;5.90;;
28760;SDS011;15917;50.014;8.352;2023-06-26T01:35:55;6.60;;;4.90;;
28760;SDS011;15917;50.014;8.352;2023-06-26T01:38:21;8.70;;;5.15;;
28760;SDS011;15917;50.014;8.352;2023-06-26T01:40:56;14.10;;;6.43;;
28760;SDS011;15917;50.014;8.352;2023-06-26T01:46:58;14.15;;;5.38;;
28760;SDS011;15917;50.014;8.352;2023-06-26T01:51:41;9.27;;;5.03;;
28760;SDS011;15917;50.014;8.352;2023-06-26T01:54:13;8.32;;;5.22;;
28760;SDS011;15917;50.014;8.352;2023-06-26T01:56:45;7.15;;;5.20;;
28760;SDS011;15917;50.014;8.352;2023-06-26T01:59:12;8.38;;;5.10;;
28760;SDS011;15917;50.014;8.352;2023-06-26T02:01:39;10.88;;;6.03;;
28760;SDS011;15917;50.014;8.352;2023-06-26T02:04:05;10.30;;;5.70;;
28760;SDS011;15917;50.014;8.352;2023-06-26T02:06:30;9.63;;;5.80;;
28760;SDS011;15917;50.014;8.352;2023-06-26T02:08:58;8.63;;;5.22;;
28760;SDS011;15917;50.014;8.352;2023-06-26T02:11:23;12.32;;;5.85;;
28760;SDS011;15917;50.014;8.352;2023-06-26T02:13:49;6.95;;;5.13;;
28760;SDS011;15917;50.014;8.352;2023-06-26T02:16:15;8.02;;;5.10;;
28760;SDS011;15917;50.014;8.352;2023-06-26T02:18:41;8.07;;;4.97;;
28760;SDS011;15917;50.014;8.352;2023-06-26T02:21:07;10.82;;;6.32;;
28760;SDS011;15917;50.014;8.352;2023-06-26T02:23:33;14.50;;;4.97;;
28760;SDS011;15917;50.014;8.352;2023-06-26T02:25:59;8.73;;;5.28;;
28760;SDS011;15917;50.014;8.352;2023-06-26T02:28:25;8.20;;;5.53;;
28760;SDS011;15917;50.014;8.352;2023-06-26T02:30:51;9.15;;;4.85;;
28760;SDS011;15917;50.014;8.352;2023-06-26T02:33:16;6.78;;;5.13;;
28760;SDS011;15917;50.014;8.352;2023-06-26T02:35:46;7.38;;;5.78;;
28760;SDS011;15917;50.014;8.352;2023-06-26T02:38:11;15.25;;;6.55;;
28760;SDS011;15917;50.014;8.352;2023-06-26T02:40:38;12.20;;;5.40;;
28760;SDS011;15917;50.014;8.352;2023-06-26T02:43:04;9.82;;;6.13;;
28760;SDS011;15917;50.014;8.352;2023-06-26T02:45:30;9.93;;;6.00;;
28760;SDS011;15917;50.014;8.352;2023-06-26T02:47:56;12.82;;;5.72;;
28760;SDS011;15917;50.014;8.352;2023-06-26T02:50:22;7.30;;;5.40;;
28760;SDS011;15917;50.014;8.352;2023-06-26T02:53:04;8.38;;;5.55;;
28760;SDS011;15917;50.014;8.352;2023-06-26T02:55:30;7.95;;;5.40;;
28760;SDS011;15917;50.014;8.352;2023-06-26T02:57:56;12.57;;;5.30;;
28760;SDS011;15917;50.014;8.352;2023-06-26T03:00:23;8.52;;;5.80;;
28760;SDS011;15917;50.014;8.352;2023-06-26T03:02:51;9.35;;;6.20;;
28760;SDS011;15917;50.014;8.352;2023-06-26T03:05:18;10.70;;;6.15;;
28760;SDS011;15917;50.014;8.352;2023-06-26T03:07:44;10.25;;;6.20;;
28760;SDS011;15917;50.014;8.352;2023-06-26T03:10:10;11.60;;;6.68;;
28760;SDS011;15917;50.014;8.352;2023-06-26T03:12:35;9.50;;;6.38;;
28760;SDS011;15917;50.014;8.352;2023-06-26T03:15:01;10.77;;;6.75;;
28760;SDS011;15917;50.014;8.352;2023-06-26T03:17:27;11.55;;;6.68;;
28760;SDS011;15917;50.014;8.352;2023-06-26T03:19:58;10.20;;;6.60;;
28760;SDS011;15917;50.014;8.352;2023-06-26T03:22:30;11.10;;;6.30;;
28760;SDS011;15917;50.014;8.352;2023-06-26T03:24:55;9.25;;;6.65;;
28760;SDS011;15917;50.014;8.352;2023-06-26T03:27:21;12.00;;;7.18;;
28760;SDS011;15917;50.014;8.352;2023-06-26T03:29:48;16.60;;;6.78;;
28760;SDS011;15917;50.014;8.352;2023-06-26T03:32:14;13.38;;;7.38;;
28760;SDS011;15917;50.014;8.352;2023-06-26T03:34:40;11.07;;;6.07;;
28760;SDS011;15917;50.014;8.352;2023-06-26T03:37:06;13.18;;;5.85;;
28760;SDS011;15917;50.014;8.352;2023-06-26T03:39:32;20.45;;;7.95;;
28760;SDS011;15917;50.014;8.352;2023-06-26T03:41:57;11.30;;;6.22;;
28760;SDS011;15917;50.014;8.352;2023-06-26T03:46:51;12.82;;;6.05;;
28760;SDS011;15917;50.014;8.352;2023-06-26T03:49:17;15.40;;;7.63;;
28760;SDS011;15917;50.014;8.352;2023-06-26T03:51:43;12.32;;;6.18;;
28760;SDS011;15917;50.014;8.352;2023-06-26T03:54:09;14.10;;;5.93;;
28760;SDS011;15917;50.014;8.352;2023-06-26T03:56:35;13.00;;;6.10;;
28760;SDS011;15917;50.014;8.352;2023-06-26T03:59:00;11.00;;;6.68;;
28760;SDS011;15917;50.014;8.352;2023-06-26T04:01:26;11.95;;;6.68;;
28760;SDS011;15917;50.014;8.352;2023-06-26T04:03:52;25.65;;;6.72;;
28760;SDS011;15917;50.014;8.352;2023-06-26T04:06:18;11.38;;;6.57;;
28760;SDS011;15917;50.014;8.352;2023-06-26T04:08:44;19.23;;;6.93;;
28760;SDS011;15917;50.014;8.352;2023-06-26T04:11:09;11.70;;;7.32;;
28760;SDS011;15917;50.014;8.352;2023-06-26T04:13:35;18.55;;;6.70;;
28760;SDS011;15917;50.014;8.352;2023-06-26T04:16:01;16.10;;;6.75;;
28760;SDS011;15917;50.014;8.352;2023-06-26T04:18:26;18.10;;;7.72;;
28760;SDS011;15917;50.014;8.352;2023-06-26T04:21:05;12.43;;;6.68;;
28760;SDS011;15917;50.014;8.352;2023-06-26T04:23:36;14.40;;;7.05;;
28760;SDS011;15917;50.014;8.352;2023-06-26T04:26:03;20.00;;;7.68;;
28760;SDS011;15917;50.014;8.352;2023-06-26T04:28:33;11.40;;;6.63;;
28760;SDS011;15917;50.014;8.352;2023-06-26T04:31:00;15.15;;;6.90;;
28760;SDS011;15917;50.014;8.352;2023-06-26T04:33:27;11.18;;;6.72;;
28760;SDS011;15917;50.014;8.352;2023-06-26T04:35:53;11.02;;;7.18;;
28760;SDS011;15917;50.014;8.352;2023-06-26T04:38:18;13.65;;;7.75;;
28760;SDS011;15917;50.014;8.352;2023-06-26T04:40:44;18.05;;;7.00;;
28760;SDS011;15917;50.014;8.352;2023-06-26T04:43:10;18.25;;;7.32;;
28760;SDS011;15917;50.014;8.352;2023-06-26T04:45:36;11.50;;;7.22;;
28760;SDS011;15917;50.014;8.352;2023-06-26T04:48:03;11.07;;;6.82;;
28760;SDS011;15917;50.014;8.352;2023-06-26T04:50:30;14.55;;;7.53;;
28760;SDS011;15917;50.014;8.352;2023-06-26T04:52:56;15.35;;;7.07;;
28760;SDS011;15917;50.014;8.352;2023-06-26T04:55:25;16.00;;;6.80;;
28760;SDS011;15917;50.014;8.352;2023-06-26T04:57:51;12.75;;;6.70;;
28760;SDS011;15917;50.014;8.352;2023-06-26T05:00:17;16.55;;;6.93;;
28760;SDS011;15917;50.014;8.352;2023-06-26T05:02:43;9.88;;;6.13;;
28760;SDS011;15917;50.014;8.352;2023-06-26T05:05:09;14.70;;;6.88;;
28760;SDS011;15917;50.014;8.352;2023-06-26T05:07:35;12.18;;;6.90;;
28760;SDS011;15917;50.014;8.352;2023-06-26T05:10:01;17.52;;;6.35;;
28760;SDS011;15917;50.014;8.352;2023-06-26T05:12:27;23.23;;;7.28;;
28760;SDS011;15917;50.014;8.352;2023-06-26T05:14:53;13.55;;;7.00;;
28760;SDS011;15917;50.014;8.352;2023-06-26T05:17:18;15.15;;;7.05;;
28760;SDS011;15917;50.014;8.352;2023-06-26T05:19:44;15.32;;;6.60;;
28760;SDS011;15917;50.014;8.352;2023-06-26T05:22:09;12.82;;;7.15;;
28760;SDS011;15917;50.014;8.352;2023-06-26T05:24:37;20.40;;;7.55;;
28760;SDS011;15917;50.014;8.352;2023-06-26T05:27:04;18.40;;;7.80;;
28760;SDS011;15917;50.014;8.352;2023-06-26T05:29:31;14.87;;;8.10;;
28760;SDS011;15917;50.014;8.352;2023-06-26T05:31:57;19.67;;;7.80;;
28760;SDS011;15917;50.014;8.352;2023-06-26T05:34:24;18.98;;;6.57;;
28760;SDS011;15917;50.014;8.352;2023-06-26T05:36:50;23.88;;;7.20;;
28760;SDS011;15917;50.014;8.352;2023-06-26T05:39:17;16.58;;;7.82;;
28760;SDS011;15917;50.014;8.352;2023-06-26T05:41:43;13.07;;;7.90;;
28760;SDS011;15917;50.014;8.352;2023-06-26T05:44:09;15.07;;;7.85;;
28760;SDS011;15917;50.014;8.352;2023-06-26T05:46:35;13.10;;;8.27;;
28760;SDS011;15917;50.014;8.352;2023-06-26T05:49:01;13.73;;;7.82;;
28760;SDS011;15917;50.014;8.352;2023-06-26T05:51:27;25.48;;;8.60;;
28760;SDS011;15917;50.014;8.352;2023-06-26T05:53:53;14.00;;;7.82;;
28760;SDS011;15917;50.014;8.352;2023-06-26T05:56:19;12.50;;;8.00;;
28760;SDS011;15917;50.014;8.352;2023-06-26T05:58:45;17.75;;;8.10;;
28760;SDS011;15917;50.014;8.352;2023-06-26T06:01:11;14.90;;;7.53;;
28760;SDS011;15917;50.014;8.352;2023-06-26T06:03:38;17.25;;;8.55;;
28760;SDS011;15917;50.014;8.352;2023-06-26T06:06:04;27.63;;;8.55;;
28760;SDS011;15917;50.014;8.352;2023-06-26T06:08:30;13.52;;;7.05;;
28760;SDS011;15917;50.014;8.352;2023-06-26T06:10:56;31.85;;;7.82;;
28760;SDS011;15917;50.014;8.352;2023-06-26T06:13:21;16.45;;;6.63;;
28760;SDS011;15917;50.014;8.352;2023-06-26T06:15:47;17.10;;;8.18;;
28760;SDS011;15917;50.014;8.352;2023-06-26T06:18:12;13.40;;;6.70;;
28760;SDS011;15917;50.014;8.352;2023-06-26T06:20:38;15.05;;;6.78;;
28760;SDS011;15917;50.014;8.352;2023-06-26T06:23:04;12.95;;;6.70;;
28760;SDS011;15917;50.014;8.352;2023-06-26T06:25:29;17.15;;;7.20;;
28760;SDS011;15917;50.014;8.352;2023-06-26T06:27:55;21.00;;;7.45;;
28760;SDS011;15917;50.014;8.352;2023-06-26T06:30:21;15.02;;;7.53;;
28760;SDS011;15917;50.014;8.352;2023-06-26T06:32:46;14.18;;;7.35;;
28760;SDS011;15917;50.014;8.352;2023-06-26T06:35:16;13.88;;;7.32;;
28760;SDS011;15917;50.014;8.352;2023-06-26T06:37:42;12.15;;;7.05;;
28760;SDS011;15917;50.014;8.352;2023-06-26T06:40:11;11.05;;;6.60;;
28760;SDS011;15917;50.014;8.352;2023-06-26T06:42:37;12.38;;;6.90;;
28760;SDS011;15917;50.014;8.352;2023-06-26T06:45:03;12.75;;;6.25;;
28760;SDS011;15917;50.014;8.352;2023-06-26T06:47:29;14.18;;;7.05;;
28760;SDS011;15917;50.014;8.352;2023-06-26T06:49:56;14.60;;;6.95;;
28760;SDS011;15917;50.014;8.352;2023-06-26T06:52:22;15.20;;;6.50;;
28760;SDS011;15917;50.014;8.352;2023-06-26T06:54:54;12.68;;;6.63;;
28760;SDS011;15917;50.014;8.352;2023-06-26T06:57:23;12.10;;;6.53;;
28760;SDS011;15917;50.014;8.352;2023-06-26T06:59:49;13.65;;;6.68;;
28760;SDS011;15917;50.014;8.352;2023-06-26T07:02:17;11.55;;;6.53;;
28760;SDS011;15917;50.014;8.352;2023-06-26T07:04:42;11.73;;;6.10;;
28760;SDS011;15917;50.014;8.352;2023-06-26T07:07:08;10.65;;;6.80;;
28760;SDS011;15917;50.014;8.352;2023-06-26T07:09:34;23.27;;;6.75;;
28760;SDS011;15917;50.014;8.352;2023-06-26T07:12:01;11.65;;;6.47;;
28760;SDS011;15917;50.014;8.352;2023-06-26T07:14:30;8.68;;;5.55;;
28760;SDS011;15917;50.014;8.352;2023-06-26T07:16:55;13.20;;;6.35;;
28760;SDS011;15917;50.014;8.352;2023-06-26T07:19:21;14.52;;;6.45;;
28760;SDS011;15917;50.014;8.352;2023-06-26T07:21:46;10.43;;;6.32;;
28760;SDS011;15917;50.014;8.352;2023-06-26T07:24:12;14.30;;;6.43;;
28760;SDS011;15917;50.014;8.352;2023-06-26T07:26:38;17.00;;;7.03;;
28760;SDS011;15917;50.014;8.352;2023-06-26T07:29:03;14.35;;;5.93;;
28760;SDS011;15917;50.014;8.352;2023-06-26T07:31:30;20.67;;;6.50;;
28760;SDS011;15917;50.014;8.352;2023-06-26T07:33:55;11.00;;;6.13;;
28760;SDS011;15917;50.014;8.352;2023-06-26T07:36:21;23.40;;;7.93;;
28760;SDS011;15917;50.014;8.352;2023-06-26T07:38:46;11.65;;;6.55;;
28760;SDS011;15917;50.014;8.352;2023-06-26T07:41:12;11.55;;;6.50;;
28760;SDS011;15917;50.014;8.352;2023-06-26T07:43:37;10.60;;;6.10;;
28760;SDS011;15917;50.014;8.352;2023-06-26T07:46:03;14.05;;;6.53;;
28760;SDS011;15917;50.014;8.352;2023-06-26T07:48:29;11.73;;;6.53;;
28760;SDS011;15917;50.014;8.352;2023-06-26T07:50:54;13.13;;;5.90;;
28760;SDS011;15917;50.014;8.352;2023-06-26T07:53:20;11.25;;;6.38;;
28760;SDS011;15917;50.014;8.352;2023-06-26T07:55:45;15.70;;;6.53;;
28760;SDS011;15917;50.014;8.352;2023-06-26T07:58:11;9.73;;;6.20;;
28760;SDS011;15917;50.014;8.352;2023-06-26T08:00:37;14.07;;;5.50;;
28760;SDS011;15917;50.014;8.352;2023-06-26T08:03:03;12.73;;;6.38;;
28760;SDS011;15917;50.014;8.352;2023-06-26T08:05:28;14.75;;;6.25;;
28760;SDS011;15917;50.014;8.352;2023-06-26T08:07:54;9.70;;;6.50;;
28760;SDS011;15917;50.014;8.352;2023-06-26T08:10:20;8.85;;;5.72;;
28760;SDS011;15917;50.014;8.352;2023-06-26T08:12:46;9.00;;;5.97;;
28760;SDS011;15917;50.014;8.352;2023-06-26T08:15:12;14.68;;;5.82;;
28760;SDS011;15917;50.014;8.352;2023-06-26T08:17:37;9.55;;;5.90;;
28760;SDS011;15917;50.014;8.352;2023-06-26T08:20:04;10.35;;;5.60;;
28760;SDS011;15917;50.014;8.352;2023-06-26T08:22:30;13.37;;;6.27;;
28760;SDS011;15917;50.014;8.352;2023-06-26T08:24:56;9.02;;;5.72;;
28760;SDS011;15917;50.014;8.352;2023-06-26T08:27:22;10.23;;;5.57;;
28760;SDS011;15917;50.014;8.352;2023-06-26T08:29:47;11.07;;;5.70;;
28760;SDS011;15917;50.014;8.352;2023-06-26T08:32:13;15.05;;;5.97;;
28760;SDS011;15917;50.014;8.352;2023-06-26T08:34:38;9.75;;;5.88;;
28760;SDS011;15917;50.014;8.352;2023-06-26T08:37:04;11.43;;;5.13;;
28760;SDS011;15917;50.014;8.352;2023-06-26T08:39:30;14.80;;;5.38;;
28760;SDS011;15917;50.014;8.352;2023-06-26T08:41:56;10.90;;;5.40;;
28760;SDS011;15917;50.014;8.352;2023-06-26T08:44:21;11.77;;;5.38;;
28760;SDS011;15917;50.014;8.352;2023-06-26T08:46:50;9.23;;;5.22;;
28760;SDS011;15917;50.014;8.352;2023-06-26T08:49:25;8.10;;;5.13;;
28760;SDS011;15917;50.014;8.352;2023-06-26T08:52:10;16.25;;;5.00;;
28760;SDS011;15917;50.014;8.352;2023-06-26T08:54:58;9.75;;;5.10;;
28760;SDS011;15917;50.014;8.352;2023-06-26T08:57:25;7.32;;;5.25;;
28760;SDS011;15917;50.014;8.352;2023-06-26T08:59:51;7.13;;;4.82;;
28760;SDS011;15917;50.014;8.352;2023-06-26T09:02:18;13.70;;;5.43;;
28760;SDS011;15917;50.014;8.352;2023-06-26T09:07:12;9.07;;;4.82;;
28760;SDS011;15917;50.014;8.352;2023-06-26T09:09:38;6.75;;;4.70;;
28760;SDS011;15917;50.014;8.352;2023-06-26T09:12:04;6.97;;;5.07;;
28760;SDS011;15917;50.014;8.352;2023-06-26T09:14:30;6.93;;;4.75;;
28760;SDS011;15917;50.014;8.352;2023-06-26T09:16:55;8.02;;;4.93;;
28760;SDS011;15917;50.014;8.352;2023-06-26T09:19:21;14.00;;;5.38;;
28760;SDS011;15917;50.014;8.352;2023-06-26T09:21:49;9.60;;;5.05;;
28760;SDS011;15917;50.014;8.352;2023-06-26T09:24:15;7.82;;;4.88;;
28760;SDS011;15917;50.014;8.352;2023-06-26T09:26:41;7.38;;;4.75;;
28760;SDS011;15917;50.014;8.352;2023-06-26T09:29:08;10.70;;;5.05;;
28760;SDS011;15917;50.014;8.352;2023-06-26T09:31:38;11.68;;;5.22;;
28760;SDS011;15917;50.014;8.352;2023-06-26T09:34:05;5.70;;;4.53;;
28760;SDS011;15917;50.014;8.352;2023-06-26T09:36:31;11.82;;;5.13;;
28760;SDS011;15917;50.014;8.352;2023-06-26T09:38:59;10.77;;;4.72;;
28760;SDS011;15917;50.014;8.352;2023-06-26T09:41:25;6.82;;;4.30;;
28760;SDS011;15917;50.014;8.352;2023-06-26T09:43:52;7.32;;;4.78;;
28760;SDS011;15917;50.014;8.352;2023-06-26T09:46:29;8.32;;;4.65;;
28760;SDS011;15917;50.014;8.352;2023-06-26T09:49:00;7.78;;;4.35;;
28760;SDS011;15917;50.014;8.352;2023-06-26T09:51:36;9.93;;;4.00;;
28760;SDS011;15917;50.014;8.352;2023-06-26T09:54:03;9.73;;;4.82;;
28760;SDS011;15917;50.014;8.352;2023-06-26T09:56:30;9.30;;;4.75;;
28760;SDS011;15917;50.014;8.352;2023-06-26T09:58:58;11.55;;;4.65;;
28760;SDS011;15917;50.014;8.352;2023-06-26T10:01:29;6.93;;;4.30;;
28760;SDS011;15917;50.014;8.352;2023-06-26T10:03:56;7.55;;;4.97;;
28760;SDS011;15917;50.014;8.352;2023-06-26T10:06:24;8.05;;;4.57;;
28760;SDS011;15917;50.014;8.352;2023-06-26T10:08:51;11.13;;;5.00;;
28760;SDS011;15917;50.014;8.352;2023-06-26T10:11:19;7.20;;;4.93;;
28760;SDS011;15917;50.014;8.352;2023-06-26T10:13:47;6.60;;;4.63;;
28760;SDS011;15917;50.014;8.352;2023-06-26T10:16:17;8.85;;;4.25;;
28760;SDS011;15917;50.014;8.352;2023-06-26T10:18:50;11.68;;;4.97;;
28760;SDS011;15917;50.014;8.352;2023-06-26T10:21:18;8.82;;;4.85;;
28760;SDS011;15917;50.014;8.352;2023-06-26T10:23:46;6.10;;;4.60;;
28760;SDS011;15917;50.014;8.352;2023-06-26T10:26:13;8.05;;;4.88;;
28760;SDS011;15917;50.014;8.352;2023-06-26T10:28:40;9.32;;;5.32;;
28760;SDS011;15917;50.014;8.352;2023-06-26T10:31:08;9.05;;;4.63;;
28760;SDS011;15917;50.014;8.352;2023-06-26T10:33:36;11.77;;;4.75;;
28760;SDS011;15917;50.014;8.352;2023-06-26T10:36:13;6.85;;;5.18;;
28760;SDS011;15917;50.014;8.352;2023-06-26T10:39:03;9.43;;;5.30;;
28760;SDS011;15917;50.014;8.352;2023-06-26T10:41:35;8.85;;;5.45;;
28760;SDS011;15917;50.014;8.352;2023-06-26T10:44:07;11.40;;;5.22;;
28760;SDS011;15917;50.014;8.352;2023-06-26T10:46:33;8.88;;;4.78;;
28760;SDS011;15917;50.014;8.352;2023-06-26T10:49:19;11.32;;;4.68;;
28760;SDS011;15917;50.014;8.352;2023-06-26T10:51:49;8.68;;;5.18;;
28760;SDS011;15917;50.014;8.352;2023-06-26T10:54:15;9.65;;;4.95;;
28760;SDS011;15917;50.014;8.352;2023-06-26T10:59:21;9.02;;;5.70;;
28760;SDS011;15917;50.014;8.352;2023-06-26T11:07:20;8.40;;;5.60;;
28760;SDS011;15917;50.014;8.352;2023-06-26T11:10:00;8.48;;;5.20;;
28760;SDS011;15917;50.014;8.352;2023-06-26T11:12:34;7.22;;;4.60;;
28760;SDS011;15917;50.014;8.352;2023-06-26T11:15:01;10.07;;;4.32;;
28760;SDS011;15917;50.014;8.352;2023-06-26T11:17:28;10.90;;;4.63;;
28760;SDS011;15917;50.014;8.352;2023-06-26T11:19:54;8.85;;;4.25;;
28760;SDS011;15917;50.014;8.352;2023-06-26T11:22:20;7.32;;;4.03;;
28760;SDS011;15917;50.014;8.352;2023-06-26T11:24:49;13.88;;;4.60;;
28760;SDS011;15917;50.014;8.352;2023-06-26T11:27:18;8.90;;;4.95;;
28760;SDS011;15917;50.014;8.352;2023-06-26T11:29:47;9.73;;;5.13;;
28760;SDS011;15917;50.014;8.352;2023-06-26T11:32:14;9.40;;;5.18;;
28760;SDS011;15917;50.014;8.352;2023-06-26T11:34:40;7.78;;;5.43;;
28760;SDS011;15917;50.014;8.352;2023-06-26T11:37:08;9.05;;;5.70;;
28760;SDS011;15917;50.014;8.352;2023-06-26T11:39:33;7.63;;;5.22;;
28760;SDS011;15917;50.014;8.352;2023-06-26T11:41:59;10.30;;;5.82;;
28760;SDS011;15917;50.014;8.352;2023-06-26T11:44:28;10.60;;;6.53;;
28760;SDS011;15917;50.014;8.352;2023-06-26T11:46:55;8.15;;;6.00;;
28760;SDS011;15917;50.014;8.352;2023-06-26T11:49:22;12.10;;;5.50;;
28760;SDS011;15917;50.014;8.352;2023-06-26T11:51:50;14.18;;;6.97;;
28760;SDS011;15917;50.014;8.352;2023-06-26T11:54:22;11.02;;;6.75;;
28760;SDS011;15917;50.014;8.352;2023-06-26T11:56:52;11.52;;;7.35;;
28760;SDS011;15917;50.014;8.352;2023-06-26T11:59:19;13.30;;;8.30;;
28760;SDS011;15917;50.014;8.352;2023-06-26T12:01:44;16.27;;;7.93;;
28760;SDS011;15917;50.014;8.352;2023-06-26T12:04:11;14.90;;;8.13;;
28760;SDS011;15917;50.014;8.352;2023-06-26T12:06:40;12.88;;;7.60;;
28760;SDS011;15917;50.014;8.352;2023-06-26T12:09:09;15.85;;;7.70;;
28760;SDS011;15917;50.014;8.352;2023-06-26T12:11:40;12.68;;;7.90;;
28760;SDS011;15917;50.014;8.352;2023-06-26T12:14:07;11.20;;;7.80;;
28760;SDS011;15917;50.014;8.352;2023-06-26T12:16:35;25.77;;;7.18;;
28760;SDS011;15917;50.014;8.352;2023-06-26T12:19:05;12.70;;;5.97;;
28760;SDS011;15917;50.014;8.352;2023-06-26T12:24:08;8.48;;;5.68;;
28760;SDS011;15917;50.014;8.352;2023-06-26T12:26:34;12.05;;;5.63;;
28760;SDS011;15917;50.014;8.352;2023-06-26T12:29:04;6.88;;;5.18;;
28760;SDS011;15917;50.014;8.352;2023-06-26T12:31:31;8.68;;;5.43;;
28760;SDS011;15917;50.014;8.352;2023-06-26T12:33:57;7.95;;;5.20;;
28760;SDS011;15917;50.014;8.352;2023-06-26T12:36:23;8.45;;;5.55;;
28760;SDS011;15917;50.014;8.352;2023-06-26T12:38:48;7.38;;;4.07;;
28760;SDS011;15917;50.014;8.352;2023-06-26T12:41:15;13.45;;;4.72;;
28760;SDS011;15917;50.014;8.352;2023-06-26T12:43:41;12.43;;;4.57;;
28760;SDS011;15917;50.014;8.352;2023-06-26T12:46:07;8.55;;;4.45;;
28760;SDS011;15917;50.014;8.352;2023-06-26T12:48:37;9.15;;;4.38;;
28760;SDS011;15917;50.014;8.352;2023-06-26T12:51:12;12.75;;;4.82;;
28760;SDS011;15917;50.014;8.352;2023-06-26T12:53:39;7.20;;;3.85;;
28760;SDS011;15917;50.014;8.352;2023-06-26T12:56:08;7.43;;;4.25;;
28760;SDS011;15917;50.014;8.352;2023-06-26T12:58:35;8.20;;;4.25;;
28760;SDS011;15917;50.014;8.352;2023-06-26T13:01:02;9.32;;;4.80;;
28760;SDS011;15917;50.014;8.352;2023-06-26T13:03:30;9.80;;;4.10;;
28760;SDS011;15917;50.014;8.352;2023-06-26T13:05:56;9.48;;;4.32;;
28760;SDS011;15917;50.014;8.352;2023-06-26T13:08:22;6.20;;;4.35;;
28760;SDS011;15917;50.014;8.352;2023-06-26T13:10:48;13.98;;;4.47;;
28760;SDS011;15917;50.014;8.352;2023-06-26T13:13:13;12.77;;;4.18;;
28760;SDS011;15917;50.014;8.352;2023-06-26T13:15:39;18.20;;;5.97;;
28760;SDS011;15917;50.014;8.352;2023-06-26T13:18:04;6.90;;;3.70;;
28760;SDS011;15917;50.014;8.352;2023-06-26T13:20:30;10.32;;;3.40;;
28760;SDS011;15917;50.014;8.352;2023-06-26T13:22:56;7.80;;;4.00;;
28760;SDS011;15917;50.014;8.352;2023-06-26T13:25:22;10.77;;;3.85;;
28760;SDS011;15917;50.014;8.352;2023-06-26T13:27:48;11.25;;;3.33;;
28760;SDS011;15917;50.014;8.352;2023-06-26T13:30:14;11.70;;;4.28;;
28760;SDS011;15917;50.014;8.352;2023-06-26T13:32:40;11.10;;;3.80;;
28760;SDS011;15917;50.014;8.352;2023-06-26T13:35:06;9.20;;;3.70;;
28760;SDS011;15917;50.014;8.352;2023-06-26T13:37:32;6.30;;;3.63;;
28760;SDS011;15917;50.014;8.352;2023-06-26T13:39:59;7.78;;;3.50;;
28760;SDS011;15917;50.014;8.352;2023-06-26T13:42:26;8.55;;;3.65;;
28760;SDS011;15917;50.014;8.352;2023-06-26T13:44:53;14.90;;;3.30;;
28760;SDS011;15917;50.014;8.352;2023-06-26T13:47:18;11.23;;;2.92;;
28760;SDS011;15917;50.014;8.352;2023-06-26T13:49:44;5.20;;;2.70;;
28760;SDS011;15917;50.014;8.352;2023-06-26T13:52:09;11.27;;;3.17;;
28760;SDS011;15917;50.014;8.352;2023-06-26T13:54:35;5.85;;;3.22;;
28760;SDS011;15917;50.014;8.352;2023-06-26T13:57:05;8.18;;;2.63;;
28760;SDS011;15917;50.014;8.352;2023-06-26T13:59:31;8.90;;;3.10;;
28760;SDS011;15917;50.014;8.352;2023-06-26T14:01:57;9.05;;;3.08;;
28760;SDS011;15917;50.014;8.352;2023-06-26T14:04:24;6.53;;;2.70;;
28760;SDS011;15917;50.014;8.352;2023-06-26T14:06:50;7.43;;;2.40;;
28760;SDS011;15917;50.014;8.352;2023-06-26T14:09:15;11.70;;;2.70;;
28760;SDS011;15917;50.014;8.352;2023-06-26T14:11:41;5.78;;;2.75;;
28760;SDS011;15917;50.014;8.352;2023-06-26T14:14:06;6.13;;;2.72;;
28760;SDS011;15917;50.014;8.352;2023-06-26T14:16:32;4.63;;;2.50;;
28760;SDS011;15917;50.014;8.352;2023-06-26T14:18:58;7.55;;;2.63;;
28760;SDS011;15917;50.014;8.352;2023-06-26T14:21:23;3.50;;;2.30;;
28760;SDS011;15917;50.014;8.352;2023-06-26T14:23:49;9.48;;;2.33;;
28760;SDS011;15917;50.014;8.352;2023-06-26T14:26:15;7.50;;;2.28;;
28760;SDS011;15917;50.014;8.352;2023-06-26T14:28:40;5.20;;;1.92;;
28760;SDS011;15917;50.014;8.352;2023-06-26T14:31:07;5.72;;;2.17;;
28760;SDS011;15917;50.014;8.352;2023-06-26T14:33:32;7.65;;;2.03;;
28760;SDS011;15917;50.014;8.352;2023-06-26T14:35:58;5.25;;;2.03;;
28760;SDS011;15917;50.014;8.352;2023-06-26T14:38:23;5.10;;;2.05;;
28760;SDS011;15917;50.014;8.352;2023-06-26T14:40:49;7.35;;;2.03;;
28760;SDS011;15917;50.014;8.352;2023-06-26T14:43:14;4.38;;;2.13;;
28760;SDS011;15917;50.014;8.352;2023-06-26T14:45:41;9.13;;;1.90;;
28760;SDS011;15917;50.014;8.352;2023-06-26T14:48:07;5.87;;;2.27;;
28760;SDS011;15917;50.014;8.352;2023-06-26T14:50:32;3.45;;;1.70;;
28760;SDS011;15917;50.014;8.352;2023-06-26T14:52:58;7.93;;;2.00;;
28760;SDS011;15917;50.014;8.352;2023-06-26T14:55:24;6.88;;;2.05;;
28760;SDS011;15917;50.014;8.352;2023-06-26T14:57:50;10.05;;;2.28;;
28760;SDS011;15917;50.014;8.352;2023-06-26T15:00:15;6.80;;;2.08;;
28760;SDS011;15917;50.014;8.352;2023-06-26T15:02:41;7.95;;;1.50;;
28760;SDS011;15917;50.014;8.352;2023-06-26T15:05:07;7.00;;;1.60;;